Time;durP1;ratioP1;P1;durP2;ratioP2;P2;SDS_P1;SDS_P2;PMS_P1;PMS_P2;Temp;Humidity;BMP_temperature;BMP_pressure;BME280_temperature;BME280_humidity;BME280_pressure;Samples;Min_cycle;Max_cycle;Signal;HPM_P1;HPM_P2
2022/11/01 00:01:25;;;;;;;;;;;24.40;41.00;;;;;;492318;242;2183;-72
2022/11/01 00:03:26;;;;;;;;;;;24.40;41.00;;;;;;492329;242;1194;-72
2022/11/01 00:05:28;;;;;;;;;;;24.40;41.00;;;;;;492272;242;1311;-72
2022/11/01 00:07:29;;;;;;;;;;;24.40;41.00;;;;;;492278;242;1198;-72
2022/11/01 00:09:30;;;;;;;;;;;24.40;41.10;;;;;;492314;242;1189;-72
2022/11/01 00:11:32;;;;;;;;;;;24.40;41.10;;;;;;492301;242;1398;-72
2022/11/01 00:13:33;;;;;;;;;;;24.40;41.10;;;;;;492296;242;1247;-72
2022/11/01 00:15:34;;;;;;;;;;;24.40;41.10;;;;;;492296;242;1196;-72
2022/11/01 00:17:35;;;;;;;;;;;24.40;41.20;;;;;;492308;242;1200;-72
2022/11/01 00:19:37;;;;;;;;;;;24.40;41.20;;;;;;492325;242;1324;-72
2022/11/01 00:21:38;;;;;;;;;;;24.30;41.30;;;;;;492310;242;2148;-72
2022/11/01 00:23:39;;;;;;;;;;;24.40;41.30;;;;;;492258;242;1186;-72
2022/11/01 00:25:41;;;;;;;;;;;24.40;41.30;;;;;;492243;242;1273;-72
2022/11/01 00:27:42;;;;;;;;;;;24.40;41.20;;;;;;492303;242;1257;-72
2022/11/01 00:29:44;;;;;;;;;;;24.40;41.20;;;;;;492275;242;1170;-72
2022/11/01 00:31:45;;;;;;;;;;;24.40;41.30;;;;;;492107;242;1626;-72
2022/11/01 00:33:46;;;;;;;;;;;24.40;41.30;;;;;;492320;242;1230;-72
2022/11/01 00:35:47;;;;;;;;;;;24.40;41.30;;;;;;492302;242;1244;-72
2022/11/01 00:37:49;;;;;;;;;;;24.40;41.30;;;;;;492206;242;1232;-72
2022/11/01 00:39:50;;;;;;;;;;;24.40;41.30;;;;;;492246;242;1189;-72
2022/11/01 00:41:51;;;;;;;;;;;24.40;41.20;;;;;;492075;242;2176;-72
2022/11/01 00:43:53;;;;;;;;;;;24.40;41.20;;;;;;492229;242;1347;-72
2022/11/01 00:45:54;;;;;;;;;;;24.40;41.20;;;;;;492237;242;1553;-72
2022/11/01 00:47:55;;;;;;;;;;;24.40;41.10;;;;;;492215;242;1281;-72
2022/11/01 00:49:57;;;;;;;;;;;24.40;41.10;;;;;;492309;242;1252;-72
2022/11/01 00:51:58;;;;;;;;;;;24.30;41.20;;;;;;492290;242;1572;-72
2022/11/01 00:54:00;;;;;;;;;;;24.30;41.20;;;;;;492269;242;1284;-72
2022/11/01 00:56:01;;;;;;;;;;;24.30;41.20;;;;;;492243;242;1820;-72
2022/11/01 00:58:02;;;;;;;;;;;24.30;41.30;;;;;;492224;242;1291;-72
2022/11/01 01:00:03;;;;;;;;;;;24.30;41.20;;;;;;492248;242;1268;-72
2022/11/01 01:02:05;;;;;;;;;;;24.30;41.00;;;;;;492329;242;2155;-72
2022/11/01 01:04:06;;;;;;;;;;;24.40;41.00;;;;;;492312;242;1237;-72
2022/11/01 01:06:07;;;;;;;;;;;24.40;40.90;;;;;;492300;242;1172;-73
2022/11/01 01:08:09;;;;;;;;;;;24.40;40.80;;;;;;492236;242;1224;-72
2022/11/01 01:10:10;;;;;;;;;;;24.40;40.70;;;;;;492237;242;1194;-72
2022/11/01 01:12:11;;;;;;;;;;;24.40;40.70;;;;;;492231;242;1231;-72
2022/11/01 01:14:13;;;;;;;;;;;24.40;40.60;;;;;;492246;242;1191;-72
2022/11/01 01:16:14;;;;;;;;;;;24.40;40.50;;;;;;492223;242;1361;-72
2022/11/01 01:18:15;;;;;;;;;;;24.40;40.50;;;;;;492324;242;1227;-72
2022/11/01 01:20:17;;;;;;;;;;;24.40;40.60;;;;;;492282;242;1255;-72
2022/11/01 01:22:18;;;;;;;;;;;24.40;40.50;;;;;;492226;242;2195;-72
2022/11/01 01:24:19;;;;;;;;;;;24.40;40.50;;;;;;492341;242;1217;-72
2022/11/01 01:26:20;;;;;;;;;;;24.40;40.50;;;;;;492270;242;1222;-72
2022/11/01 01:28:22;;;;;;;;;;;24.40;40.40;;;;;;492269;242;1199;-72
2022/11/01 01:30:23;;;;;;;;;;;24.40;40.40;;;;;;492344;242;1256;-72
2022/11/01 01:32:25;;;;;;;;;;;24.50;40.30;;;;;;492316;242;1139;-72
2022/11/01 01:34:26;;;;;;;;;;;24.50;40.20;;;;;;492250;242;1212;-72
2022/11/01 01:36:27;;;;;;;;;;;24.40;40.20;;;;;;492118;242;1771;-72
2022/11/01 01:38:28;;;;;;;;;;;24.40;40.20;;;;;;492354;242;1168;-72
2022/11/01 01:40:30;;;;;;;;;;;24.40;40.30;;;;;;492280;242;1246;-72
2022/11/01 01:42:31;;;;;;;;;;;24.40;40.20;;;;;;492109;242;2176;-72
2022/11/01 01:44:32;;;;;;;;;;;24.40;40.20;;;;;;492326;242;1214;-72
2022/11/01 01:46:34;;;;;;;;;;;24.40;40.10;;;;;;492039;242;1318;-72
2022/11/01 01:48:35;;;;;;;;;;;24.40;40.00;;;;;;492274;242;1585;-72
2022/11/01 01:50:36;;;;;;;;;;;24.50;40.00;;;;;;492258;242;1183;-72
2022/11/01 01:52:38;;;;;;;;;;;24.40;40.00;;;;;;492209;242;1317;-72
2022/11/01 01:54:39;;;;;;;;;;;24.40;40.00;;;;;;492269;242;1249;-72
2022/11/01 01:56:40;;;;;;;;;;;24.50;39.90;;;;;;492278;242;1275;-72
2022/11/01 01:58:42;;;;;;;;;;;24.40;39.80;;;;;;492257;242;1212;-72
2022/11/01 02:00:43;;;;;;;;;;;24.50;39.80;;;;;;492329;242;1244;-72
2022/11/01 02:02:44;;;;;;;;;;;24.50;39.70;;;;;;492272;242;2140;-72
2022/11/01 02:04:46;;;;;;;;;;;24.40;39.70;;;;;;492293;242;1237;-72
2022/11/01 02:06:47;;;;;;;;;;;24.40;39.70;;;;;;492292;242;2023;-72
2022/11/01 02:08:48;;;;;;;;;;;24.40;39.70;;;;;;492305;242;1334;-72
2022/11/01 02:10:50;;;;;;;;;;;24.50;39.70;;;;;;492288;242;1206;-72
2022/11/01 02:12:51;;;;;;;;;;;24.40;39.60;;;;;;492250;242;1302;-72
2022/11/01 02:14:52;;;;;;;;;;;24.40;39.60;;;;;;492272;242;1351;-72
2022/11/01 02:16:54;;;;;;;;;;;24.40;39.60;;;;;;492226;242;1306;-72
2022/11/01 02:18:55;;;;;;;;;;;24.40;39.70;;;;;;492245;242;1202;-72
2022/11/01 02:20:56;;;;;;;;;;;24.40;39.70;;;;;;492257;242;1298;-72
2022/11/01 02:22:58;;;;;;;;;;;24.40;39.70;;;;;;492271;242;2199;-72
2022/11/01 02:24:59;;;;;;;;;;;24.40;39.60;;;;;;492285;242;1187;-72
2022/11/01 02:27:00;;;;;;;;;;;24.40;39.60;;;;;;492354;242;1265;-72
2022/11/01 02:29:02;;;;;;;;;;;24.40;39.60;;;;;;492237;242;2255;-72
2022/11/01 02:31:03;;;;;;;;;;;24.40;39.60;;;;;;492255;242;1289;-72
2022/11/01 02:33:04;;;;;;;;;;;24.40;39.50;;;;;;492267;242;1193;-72
2022/11/01 02:35:06;;;;;;;;;;;24.40;39.50;;;;;;492243;242;1258;-72
2022/11/01 02:37:07;;;;;;;;;;;24.40;39.60;;;;;;492236;242;1334;-72
2022/11/01 02:39:08;;;;;;;;;;;24.50;39.50;;;;;;492220;242;1279;-72
2022/11/01 02:41:09;;;;;;;;;;;24.40;39.50;;;;;;492363;242;1247;-72
2022/11/01 02:43:11;;;;;;;;;;;24.40;39.50;;;;;;492192;242;2156;-72
2022/11/01 02:45:26;;;;;;;;;;;24.40;39.60;;;;;;492227;242;1305;-73
2022/11/01 02:47:13;;;;;;;;;;;24.40;39.60;;;;;;492169;242;1717;-72
2022/11/01 02:49:15;;;;;;;;;;;24.40;39.70;;;;;;492243;242;1315;-72
2022/11/01 02:51:16;;;;;;;;;;;24.30;39.60;;;;;;492219;242;1233;-72
2022/11/01 02:53:17;;;;;;;;;;;24.40;39.70;;;;;;492296;242;1185;-72
2022/11/01 02:55:28;;;;;;;;;;;24.30;39.80;;;;;;492237;242;1479;-72
2022/11/01 02:57:29;;;;;;;;;;;24.30;39.80;;;;;;492108;242;2005;-72
2022/11/01 02:59:30;;;;;;;;;;;24.30;39.70;;;;;;492194;242;1306;-72
2022/11/01 03:01:33;;;;;;;;;;;24.40;39.70;;;;;;492228;242;1301;-72
2022/11/01 03:03:33;;;;;;;;;;;24.40;39.70;;;;;;492254;242;2117;-72
2022/11/01 03:05:34;;;;;;;;;;;24.40;39.70;;;;;;492274;242;1239;-72
2022/11/01 03:07:35;;;;;;;;;;;24.40;39.70;;;;;;492054;242;1331;-73
2022/11/01 03:09:37;;;;;;;;;;;24.40;39.70;;;;;;492276;242;1208;-72
2022/11/01 03:11:38;;;;;;;;;;;24.30;39.70;;;;;;492061;242;1589;-72
2022/11/01 03:13:39;;;;;;;;;;;24.30;39.70;;;;;;492294;242;1298;-72
2022/11/01 03:15:41;;;;;;;;;;;24.30;39.70;;;;;;492209;242;1300;-72
2022/11/01 03:17:42;;;;;;;;;;;24.40;39.70;;;;;;492264;242;1287;-72
2022/11/01 03:19:43;;;;;;;;;;;24.40;39.60;;;;;;492281;242;1616;-72
2022/11/01 03:21:45;;;;;;;;;;;24.40;39.60;;;;;;492213;242;1428;-72
2022/11/01 03:23:46;;;;;;;;;;;24.30;39.60;;;;;;492307;242;2183;-72
2022/11/01 03:25:47;;;;;;;;;;;24.30;39.70;;;;;;492174;242;1554;-72
2022/11/01 03:27:48;;;;;;;;;;;24.30;39.70;;;;;;492290;242;1206;-72
2022/11/01 03:29:55;;;;;;;;;;;24.30;39.60;;;;;;492271;242;1657;-72
2022/11/01 03:31:53;;;;;;;;;;;24.30;39.50;;;;;;492214;242;2089;-72
2022/11/01 03:33:54;;;;;;;;;;;24.40;39.50;;;;;;492223;242;1186;-71
2022/11/01 03:35:55;;;;;;;;;;;24.40;39.40;;;;;;492232;242;1616;-72
2022/11/01 03:37:57;;;;;;;;;;;24.40;39.40;;;;;;492254;242;1210;-72
2022/11/01 03:39:58;;;;;;;;;;;24.40;39.30;;;;;;492289;242;1248;-72
2022/11/01 03:41:59;;;;;;;;;;;24.40;39.30;;;;;;492315;242;2140;-72
2022/11/01 03:44:01;;;;;;;;;;;24.40;39.30;;;;;;492299;242;1184;-72
2022/11/01 03:46:02;;;;;;;;;;;24.40;39.30;;;;;;492245;242;1264;-72
2022/11/01 03:48:04;;;;;;;;;;;24.40;39.20;;;;;;492222;242;1285;-72
2022/11/01 03:50:05;;;;;;;;;;;24.40;39.20;;;;;;492225;242;1957;-72
2022/11/01 03:52:06;;;;;;;;;;;24.40;39.10;;;;;;492225;242;1165;-72
2022/11/01 03:54:10;;;;;;;;;;;24.40;39.00;;;;;;492246;242;1342;-72
2022/11/01 03:56:09;;;;;;;;;;;24.40;39.00;;;;;;492261;242;2035;-72
2022/11/01 03:58:10;;;;;;;;;;;24.40;39.00;;;;;;492233;242;1549;-72
2022/11/01 04:00:12;;;;;;;;;;;24.40;39.00;;;;;;492235;242;1225;-72
2022/11/01 04:02:13;;;;;;;;;;;24.40;39.00;;;;;;492305;242;2164;-73
2022/11/01 04:04:14;;;;;;;;;;;24.40;39.00;;;;;;492284;242;1281;-72
2022/11/01 04:06:15;;;;;;;;;;;24.40;39.00;;;;;;492271;242;1374;-72
2022/11/01 04:08:17;;;;;;;;;;;24.40;38.90;;;;;;492204;242;1285;-72
2022/11/01 04:10:18;;;;;;;;;;;24.40;38.90;;;;;;492207;242;1261;-72
2022/11/01 04:12:19;;;;;;;;;;;24.40;38.90;;;;;;492292;242;1309;-72
2022/11/01 04:21:18;;;;;;;;;;;24.40;38.80;;;;;;492260;242;1234;-72
2022/11/01 04:23:20;;;;;;;;;;;24.30;38.70;;;;;;492173;242;2192;-72
2022/11/01 04:25:21;;;;;;;;;;;24.30;38.70;;;;;;492341;242;1234;-72
2022/11/01 04:27:22;;;;;;;;;;;24.40;38.70;;;;;;492222;242;1412;-72
2022/11/01 04:29:24;;;;;;;;;;;24.30;38.60;;;;;;492291;242;1217;-72
2022/11/01 04:31:25;;;;;;;;;;;24.40;38.70;;;;;;492242;242;1283;-72
2022/11/01 04:33:27;;;;;;;;;;;24.30;38.60;;;;;;492261;242;1265;-72
2022/11/01 04:35:29;;;;;;;;;;;24.30;38.60;;;;;;492228;242;1191;-72
2022/11/01 04:37:30;;;;;;;;;;;24.30;38.50;;;;;;492237;242;1273;-72
2022/11/01 04:39:32;;;;;;;;;;;24.20;38.50;;;;;;492197;242;1190;-72
2022/11/01 04:41:33;;;;;;;;;;;24.30;38.50;;;;;;492268;242;1336;-72
2022/11/01 04:43:34;;;;;;;;;;;24.30;38.50;;;;;;492209;242;2160;-72
2022/11/01 04:45:35;;;;;;;;;;;24.30;38.50;;;;;;492344;242;1239;-72
2022/11/01 04:47:37;;;;;;;;;;;24.30;38.50;;;;;;492241;242;1204;-72
2022/11/01 04:49:38;;;;;;;;;;;24.30;38.50;;;;;;492217;242;1176;-72
2022/11/01 04:51:39;;;;;;;;;;;24.30;38.60;;;;;;492199;242;1168;-72
2022/11/01 04:53:41;;;;;;;;;;;24.30;38.60;;;;;;492220;242;1400;-72
2022/11/01 04:55:42;;;;;;;;;;;24.30;38.50;;;;;;492257;242;1245;-72
2022/11/01 04:57:43;;;;;;;;;;;24.40;38.50;;;;;;492226;242;1306;-72
2022/11/01 04:59:45;;;;;;;;;;;24.40;38.40;;;;;;492354;242;1306;-72
2022/11/01 05:01:46;;;;;;;;;;;24.40;38.40;;;;;;492235;242;1517;-72
2022/11/01 05:03:47;;;;;;;;;;;24.40;38.30;;;;;;492253;242;2163;-72
2022/11/01 05:05:49;;;;;;;;;;;24.40;38.30;;;;;;492271;242;1301;-72
2022/11/01 05:07:50;;;;;;;;;;;24.40;38.30;;;;;;492228;242;1236;-72
2022/11/01 05:09:51;;;;;;;;;;;24.40;38.30;;;;;;492219;242;1200;-72
2022/11/01 05:11:53;;;;;;;;;;;24.40;38.30;;;;;;492235;242;1352;-72
2022/11/01 05:13:54;;;;;;;;;;;24.30;38.20;;;;;;492250;242;1248;-72
2022/11/01 05:15:55;;;;;;;;;;;24.40;38.20;;;;;;492273;242;1223;-72
2022/11/01 05:17:57;;;;;;;;;;;24.30;38.10;;;;;;492267;242;1283;-72
2022/11/01 05:19:58;;;;;;;;;;;24.40;38.00;;;;;;492296;242;1170;-72
2022/11/01 05:21:59;;;;;;;;;;;24.40;38.00;;;;;;492268;242;1346;-72
2022/11/01 05:24:01;;;;;;;;;;;24.30;38.00;;;;;;492225;242;2199;-72
2022/11/01 05:26:02;;;;;;;;;;;24.30;37.90;;;;;;492262;242;1365;-72
2022/11/01 05:28:04;;;;;;;;;;;24.30;37.90;;;;;;492345;242;1221;-72
2022/11/01 05:30:05;;;;;;;;;;;24.40;37.90;;;;;;492246;242;1959;-72
2022/11/01 05:32:06;;;;;;;;;;;24.30;37.80;;;;;;492219;242;1292;-72
2022/11/01 05:34:08;;;;;;;;;;;24.30;37.80;;;;;;492276;242;1732;-72
2022/11/01 05:36:09;;;;;;;;;;;24.40;37.80;;;;;;492247;242;1176;-72
2022/11/01 05:38:10;;;;;;;;;;;24.30;37.70;;;;;;492372;242;1196;-72
2022/11/01 05:40:11;;;;;;;;;;;24.30;37.70;;;;;;492261;242;1207;-72
2022/11/01 05:42:13;;;;;;;;;;;24.40;37.70;;;;;;492328;242;1345;-72
2022/11/01 05:44:14;;;;;;;;;;;24.30;37.70;;;;;;492258;242;2156;-72
2022/11/01 05:46:16;;;;;;;;;;;24.40;37.70;;;;;;492350;242;1215;-72
2022/11/01 05:48:17;;;;;;;;;;;24.30;37.70;;;;;;492245;242;1216;-72
2022/11/01 05:50:18;;;;;;;;;;;24.30;37.70;;;;;;492406;242;1203;-72
2022/11/01 05:52:20;;;;;;;;;;;24.30;37.60;;;;;;492287;242;1344;-72
2022/11/01 05:54:21;;;;;;;;;;;24.30;37.70;;;;;;492302;242;1197;-72
2022/11/01 05:56:22;;;;;;;;;;;24.30;37.70;;;;;;492265;242;1264;-72
2022/11/01 05:58:23;;;;;;;;;;;24.30;37.70;;;;;;492217;242;1270;-72
2022/11/01 06:00:25;;;;;;;;;;;24.30;37.80;;;;;;492236;242;1445;-72
2022/11/01 06:02:26;;;;;;;;;;;24.30;37.70;;;;;;492236;242;1174;-72
2022/11/01 06:04:27;;;;;;;;;;;24.30;37.70;;;;;;492315;242;2184;-72
2022/11/01 06:06:29;;;;;;;;;;;24.30;37.60;;;;;;492366;242;1317;-72
2022/11/01 06:08:30;;;;;;;;;;;24.40;37.60;;;;;;492251;242;1171;-72
2022/11/01 06:10:31;;;;;;;;;;;24.40;37.60;;;;;;492261;242;1312;-72
2022/11/01 06:12:33;;;;;;;;;;;24.30;37.60;;;;;;492265;242;1208;-72
2022/11/01 06:14:34;;;;;;;;;;;24.40;37.60;;;;;;492294;242;1299;-72
2022/11/01 06:16:35;;;;;;;;;;;24.30;37.60;;;;;;492247;242;1227;-72
2022/11/01 06:18:37;;;;;;;;;;;24.20;37.80;;;;;;492284;242;1282;-72
2022/11/01 06:20:38;;;;;;;;;;;24.10;37.90;;;;;;492244;242;1329;-72
2022/11/01 06:22:39;;;;;;;;;;;24.00;38.00;;;;;;492283;242;1240;-72
2022/11/01 06:24:41;;;;;;;;;;;24.00;38.10;;;;;;492284;242;2156;-72
2022/11/01 06:26:42;;;;;;;;;;;24.00;38.10;;;;;;492287;242;1142;-72
2022/11/01 06:28:43;;;;;;;;;;;24.00;38.10;;;;;;492322;242;1193;-72
2022/11/01 06:30:45;;;;;;;;;;;24.00;38.20;;;;;;492304;242;1231;-72
2022/11/01 06:32:46;;;;;;;;;;;23.90;38.20;;;;;;492317;242;1193;-72
2022/11/01 06:34:47;;;;;;;;;;;23.90;38.30;;;;;;492290;242;1193;-74
2022/11/01 06:36:49;;;;;;;;;;;23.90;38.50;;;;;;492212;242;1331;-74
2022/11/01 06:38:50;;;;;;;;;;;23.90;38.40;;;;;;492241;242;1162;-74
2022/11/01 06:40:51;;;;;;;;;;;23.90;38.50;;;;;;492314;242;1188;-74
2022/11/01 06:42:53;;;;;;;;;;;23.90;38.50;;;;;;492211;242;1201;-74
2022/11/01 06:44:54;;;;;;;;;;;23.90;38.50;;;;;;492163;242;2204;-74
2022/11/01 06:46:55;;;;;;;;;;;23.90;38.50;;;;;;492206;242;1348;-74
2022/11/01 06:48:57;;;;;;;;;;;23.90;38.50;;;;;;492212;242;1471;-74
2022/11/01 06:50:58;;;;;;;;;;;23.90;38.50;;;;;;492218;242;1313;-74
2022/11/01 06:52:59;;;;;;;;;;;23.90;38.70;;;;;;492231;242;1679;-74
2022/11/01 06:55:01;;;;;;;;;;;23.80;38.60;;;;;;492247;242;1191;-74
2022/11/01 06:57:02;;;;;;;;;;;23.80;38.70;;;;;;492313;242;1154;-74
2022/11/01 06:59:03;;;;;;;;;;;23.80;38.80;;;;;;492265;242;1202;-74
2022/11/01 07:01:05;;;;;;;;;;;23.70;39.00;;;;;;492206;242;1392;-74
2022/11/01 07:03:06;;;;;;;;;;;23.80;39.00;;;;;;492258;242;1187;-74
2022/11/01 07:05:07;;;;;;;;;;;23.80;39.10;;;;;;492232;242;2188;-74
2022/11/01 07:07:09;;;;;;;;;;;23.80;39.10;;;;;;492252;242;1159;-74
2022/11/01 07:09:10;;;;;;;;;;;23.80;39.20;;;;;;492139;242;1247;-74
2022/11/01 07:11:11;;;;;;;;;;;23.90;39.30;;;;;;492269;242;1177;-74
2022/11/01 07:13:13;;;;;;;;;;;23.90;39.30;;;;;;492246;242;1228;-74
2022/11/01 07:15:14;;;;;;;;;;;23.80;39.40;;;;;;492262;242;1216;-74
2022/11/01 07:17:15;;;;;;;;;;;23.80;39.50;;;;;;492310;242;1232;-74
2022/11/01 07:19:16;;;;;;;;;;;23.80;39.60;;;;;;492275;242;1490;-74
2022/11/01 07:21:18;;;;;;;;;;;23.90;39.70;;;;;;492297;242;1211;-74
2022/11/01 07:23:19;;;;;;;;;;;23.90;39.80;;;;;;492193;242;2180;-74
2022/11/01 07:25:20;;;;;;;;;;;23.80;39.80;;;;;;492256;242;1305;-74
2022/11/01 07:27:22;;;;;;;;;;;23.90;39.90;;;;;;492268;242;1179;-74
2022/11/01 07:29:23;;;;;;;;;;;23.90;40.00;;;;;;492245;242;1339;-74
2022/11/01 07:31:25;;;;;;;;;;;23.90;40.10;;;;;;492300;242;1245;-74
2022/11/01 07:33:26;;;;;;;;;;;23.80;40.10;;;;;;492207;242;1230;-74
2022/11/01 07:35:27;;;;;;;;;;;23.80;40.10;;;;;;492229;242;1195;-74
2022/11/01 07:37:29;;;;;;;;;;;23.90;40.20;;;;;;492175;242;1176;-74
2022/11/01 07:39:30;;;;;;;;;;;23.80;40.20;;;;;;492197;242;1261;-74
2022/11/01 07:41:31;;;;;;;;;;;23.90;40.40;;;;;;492251;242;1271;-74
2022/11/01 07:43:34;;;;;;;;;;;23.80;40.40;;;;;;492239;242;2175;-74
2022/11/01 07:45:34;;;;;;;;;;;23.80;40.50;;;;;;492265;242;2047;-75
2022/11/01 07:47:36;;;;;;;;;;;23.80;40.50;;;;;;492296;242;1199;-74
2022/11/01 07:49:37;;;;;;;;;;;23.80;40.60;;;;;;492269;242;1191;-74
2022/11/01 07:51:38;;;;;;;;;;;23.80;40.60;;;;;;492224;242;1185;-74
2022/11/01 07:53:40;;;;;;;;;;;23.80;40.60;;;;;;492269;242;1174;-74
2022/11/01 07:55:41;;;;;;;;;;;23.80;40.70;;;;;;492306;242;1211;-74
2022/11/01 07:57:42;;;;;;;;;;;23.80;40.80;;;;;;492285;242;1305;-74
2022/11/01 07:59:44;;;;;;;;;;;23.80;40.80;;;;;;492295;242;1152;-74
2022/11/01 08:01:45;;;;;;;;;;;23.80;41.00;;;;;;492304;242;1277;-74
2022/11/01 08:03:48;;;;;;;;;;;23.80;41.00;;;;;;492363;242;2148;-74
2022/11/01 08:05:48;;;;;;;;;;;23.80;41.10;;;;;;492246;242;1619;-74
2022/11/01 08:07:50;;;;;;;;;;;23.80;41.10;;;;;;492195;242;1526;-74
2022/11/01 08:09:51;;;;;;;;;;;23.80;41.10;;;;;;492259;242;1249;-74
2022/11/01 08:11:52;;;;;;;;;;;23.70;41.40;;;;;;492251;242;1149;-74
2022/11/01 08:13:54;;;;;;;;;;;23.80;41.50;;;;;;492207;242;1365;-74
2022/11/01 08:15:55;;;;;;;;;;;23.70;41.60;;;;;;492247;242;1307;-74
2022/11/01 08:17:56;;;;;;;;;;;23.80;41.60;;;;;;492304;242;1219;-74
2022/11/01 08:19:58;;;;;;;;;;;23.80;41.70;;;;;;492264;242;1717;-74
2022/11/01 08:21:59;;;;;;;;;;;23.80;41.90;;;;;;492184;242;1220;-74
2022/11/01 08:24:00;;;;;;;;;;;23.80;42.00;;;;;;492212;242;2171;-74
2022/11/01 08:26:03;;;;;;;;;;;23.80;42.10;;;;;;492244;242;1317;-74
2022/11/01 08:28:03;;;;;;;;;;;23.80;42.20;;;;;;492189;242;1970;-74
2022/11/01 08:30:04;;;;;;;;;;;23.80;42.30;;;;;;492308;242;1211;-74
2022/11/01 08:32:06;;;;;;;;;;;23.80;42.40;;;;;;492221;242;1188;-74
2022/11/01 08:34:07;;;;;;;;;;;23.80;42.50;;;;;;492246;242;1290;-74
2022/11/01 08:36:08;;;;;;;;;;;23.80;42.50;;;;;;492268;242;1329;-74
2022/11/01 08:38:10;;;;;;;;;;;23.80;42.60;;;;;;492201;242;1348;-74
2022/11/01 08:40:11;;;;;;;;;;;23.90;42.70;;;;;;492239;242;1544;-74
2022/11/01 08:42:12;;;;;;;;;;;24.00;42.40;;;;;;492226;242;1340;-74
2022/11/01 08:44:14;;;;;;;;;;;24.10;42.30;;;;;;492226;242;2148;-74
2022/11/01 08:46:15;;;;;;;;;;;24.10;42.30;;;;;;492222;242;2071;-74
2022/11/01 08:48:16;;;;;;;;;;;24.20;42.40;;;;;;492226;242;1250;-74
2022/11/01 08:50:17;;;;;;;;;;;24.10;42.40;;;;;;492298;242;1303;-74
2022/11/01 08:52:19;;;;;;;;;;;24.20;42.40;;;;;;492234;242;1253;-74
2022/11/01 08:54:20;;;;;;;;;;;24.30;42.50;;;;;;492267;242;1204;-74
2022/11/01 08:56:23;;;;;;;;;;;24.20;42.50;;;;;;492092;242;1204;-75
2022/11/01 08:58:23;;;;;;;;;;;24.20;42.60;;;;;;492278;242;2022;-75
2022/11/01 09:00:24;;;;;;;;;;;24.30;42.60;;;;;;492276;242;1970;-74
2022/11/01 09:02:25;;;;;;;;;;;24.30;42.70;;;;;;492151;242;1522;-74
2022/11/01 09:04:27;;;;;;;;;;;24.30;42.60;;;;;;492262;242;2177;-74
2022/11/01 09:06:28;;;;;;;;;;;24.40;42.80;;;;;;492122;242;1829;-74
2022/11/01 09:08:30;;;;;;;;;;;24.30;42.80;;;;;;492230;242;1299;-74
2022/11/01 09:10:31;;;;;;;;;;;24.30;42.90;;;;;;492302;242;1254;-74
2022/11/01 09:12:32;;;;;;;;;;;24.30;43.00;;;;;;492286;242;1576;-74
2022/11/01 09:14:34;;;;;;;;;;;24.30;43.10;;;;;;492237;242;1268;-74
2022/11/01 09:16:35;;;;;;;;;;;24.30;43.10;;;;;;492287;242;1150;-74
2022/11/01 09:18:37;;;;;;;;;;;24.20;43.40;;;;;;492327;242;1189;-74
2022/11/01 09:20:38;;;;;;;;;;;24.20;43.30;;;;;;492244;242;1230;-74
2022/11/01 09:22:39;;;;;;;;;;;24.30;43.30;;;;;;492235;242;1207;-74
2022/11/01 09:24:41;;;;;;;;;;;24.30;43.30;;;;;;492271;242;2192;-75
2022/11/01 09:26:42;;;;;;;;;;;24.30;43.30;;;;;;492291;242;1145;-74
2022/11/01 09:28:43;;;;;;;;;;;24.30;43.20;;;;;;492296;242;1281;-74
2022/11/01 09:30:45;;;;;;;;;;;24.30;43.30;;;;;;492267;242;1322;-74
2022/11/01 09:32:46;;;;;;;;;;;24.30;43.30;;;;;;492281;242;1421;-74
2022/11/01 09:34:48;;;;;;;;;;;24.30;43.30;;;;;;492209;242;1211;-74
2022/11/01 09:36:49;;;;;;;;;;;24.30;43.30;;;;;;492210;242;1516;-74
2022/11/01 09:38:51;;;;;;;;;;;24.30;43.40;;;;;;492236;242;1250;-74
2022/11/01 09:40:52;;;;;;;;;;;24.30;43.30;;;;;;491284;242;1707;-74
2022/11/01 09:42:53;;;;;;;;;;;24.30;43.40;;;;;;491314;242;1527;-74
2022/11/01 09:44:55;;;;;;;;;;;24.40;43.30;;;;;;492224;242;2145;-74
2022/11/01 09:46:56;;;;;;;;;;;24.40;43.40;;;;;;492246;242;1318;-74
2022/11/01 09:48:57;;;;;;;;;;;24.40;43.40;;;;;;492259;242;1348;-74
2022/11/01 09:50:59;;;;;;;;;;;24.30;43.40;;;;;;492220;242;1229;-74
2022/11/01 09:53:00;;;;;;;;;;;24.40;43.40;;;;;;492178;242;1311;-74
2022/11/01 09:55:01;;;;;;;;;;;24.40;43.40;;;;;;492214;242;1182;-74
2022/11/01 09:57:03;;;;;;;;;;;24.40;43.50;;;;;;492274;242;1261;-74
2022/11/01 09:59:04;;;;;;;;;;;24.20;43.60;;;;;;492288;242;1270;-74
2022/11/01 10:01:05;;;;;;;;;;;24.30;43.70;;;;;;492222;242;1180;-74
2022/11/01 10:03:07;;;;;;;;;;;24.30;43.60;;;;;;492328;242;1145;-74
2022/11/01 10:05:08;;;;;;;;;;;24.30;43.60;;;;;;492231;242;2179;-74
2022/11/01 10:07:09;;;;;;;;;;;24.30;43.70;;;;;;492266;242;1229;-74
2022/11/01 10:09:11;;;;;;;;;;;24.40;43.80;;;;;;492321;242;1174;-74
2022/11/01 10:11:12;;;;;;;;;;;24.40;43.70;;;;;;492230;242;1234;-74
2022/11/01 10:13:13;;;;;;;;;;;24.40;43.80;;;;;;492240;242;1162;-74
2022/11/01 10:15:15;;;;;;;;;;;24.30;43.90;;;;;;492251;242;1260;-74
2022/11/01 10:17:16;;;;;;;;;;;24.40;43.90;;;;;;492351;242;1188;-74
2022/11/01 10:19:17;;;;;;;;;;;24.40;44.00;;;;;;492223;242;1266;-75
2022/11/01 10:21:19;;;;;;;;;;;24.40;44.00;;;;;;492239;242;1547;-75
2022/11/01 10:23:20;;;;;;;;;;;24.40;43.90;;;;;;492161;242;1319;-75
2022/11/01 10:25:21;;;;;;;;;;;24.40;43.90;;;;;;492205;242;2187;-75
2022/11/01 10:27:22;;;;;;;;;;;24.40;44.00;;;;;;492231;242;1710;-75
2022/11/01 10:29:24;;;;;;;;;;;24.40;44.00;;;;;;492169;242;1595;-75
2022/11/01 10:31:25;;;;;;;;;;;24.40;44.10;;;;;;492248;242;1431;-74
2022/11/01 10:33:26;;;;;;;;;;;24.40;44.20;;;;;;492191;242;1239;-74
2022/11/01 10:35:28;;;;;;;;;;;24.30;44.10;;;;;;492173;242;1214;-74
2022/11/01 10:37:29;;;;;;;;;;;24.30;44.10;;;;;;492181;242;1302;-74
2022/11/01 10:39:31;;;;;;;;;;;24.30;44.30;;;;;;492193;242;1595;-74
2022/11/01 10:41:32;;;;;;;;;;;24.10;44.50;;;;;;492220;242;1315;-75
2022/11/01 10:43:33;;;;;;;;;;;24.10;44.70;;;;;;492211;242;1604;-75
2022/11/01 10:45:35;;;;;;;;;;;24.10;44.80;;;;;;492179;242;2192;-75
2022/11/01 10:47:36;;;;;;;;;;;24.20;44.60;;;;;;492191;242;1225;-75
2022/11/01 10:49:38;;;;;;;;;;;24.20;44.40;;;;;;492159;242;1289;-72
2022/11/01 10:51:39;;;;;;;;;;;24.20;44.50;;;;;;492282;242;1221;-72
2022/11/01 10:53:40;;;;;;;;;;;24.20;44.50;;;;;;492232;242;1175;-72
2022/11/01 10:55:42;;;;;;;;;;;24.20;44.30;;;;;;492233;242;1275;-72
2022/11/01 10:57:43;;;;;;;;;;;24.30;44.30;;;;;;492294;242;1277;-72
2022/11/01 10:59:45;;;;;;;;;;;24.20;44.40;;;;;;492214;242;1234;-72
2022/11/01 11:01:46;;;;;;;;;;;24.30;44.40;;;;;;492262;242;1617;-72
2022/11/01 11:03:47;;;;;;;;;;;24.20;44.50;;;;;;492278;242;1255;-72
2022/11/01 11:05:48;;;;;;;;;;;24.20;44.50;;;;;;492242;242;2191;-72
2022/11/01 11:07:50;;;;;;;;;;;24.20;44.60;;;;;;492300;242;1187;-72
2022/11/01 11:09:51;;;;;;;;;;;24.20;44.50;;;;;;492268;242;1228;-72
2022/11/01 11:11:52;;;;;;;;;;;24.20;44.70;;;;;;492219;242;1254;-72
2022/11/01 11:13:54;;;;;;;;;;;24.20;44.60;;;;;;492234;242;1290;-72
2022/11/01 11:15:55;;;;;;;;;;;24.20;44.60;;;;;;492245;242;1335;-72
2022/11/01 11:17:56;;;;;;;;;;;24.30;44.60;;;;;;492339;242;1239;-72
2022/11/01 11:19:58;;;;;;;;;;;24.40;44.60;;;;;;492248;242;1371;-72
2022/11/01 11:21:59;;;;;;;;;;;24.40;44.50;;;;;;492225;242;1351;-72
2022/11/01 11:24:00;;;;;;;;;;;24.30;44.60;;;;;;492202;242;1296;-72
2022/11/01 11:26:02;;;;;;;;;;;24.30;44.70;;;;;;492165;242;2188;-72
2022/11/01 11:28:03;;;;;;;;;;;24.40;44.70;;;;;;492166;242;1259;-72
2022/11/01 11:30:04;;;;;;;;;;;24.40;44.70;;;;;;492214;242;1236;-72
2022/11/01 11:32:06;;;;;;;;;;;24.40;44.70;;;;;;492245;242;1347;-72
2022/11/01 11:34:07;;;;;;;;;;;24.40;44.70;;;;;;492148;242;1898;-71
2022/11/01 11:36:08;;;;;;;;;;;24.40;44.70;;;;;;492250;242;1455;-72
2022/11/01 11:38:10;;;;;;;;;;;24.40;44.70;;;;;;492186;242;1218;-72
2022/11/01 11:40:11;;;;;;;;;;;24.40;44.70;;;;;;492233;242;1510;-72
2022/11/01 11:42:12;;;;;;;;;;;24.40;44.70;;;;;;492246;242;1182;-72
2022/11/01 11:44:14;;;;;;;;;;;24.30;44.80;;;;;;492277;242;1185;-72
2022/11/01 11:46:19;;;;;;;;;;;24.30;44.80;;;;;;492213;242;2152;-72
2022/11/01 11:48:16;;;;;;;;;;;24.40;44.90;;;;;;492216;242;1950;-72
2022/11/01 11:50:18;;;;;;;;;;;24.30;44.90;;;;;;492262;242;1188;-72
2022/11/01 11:52:19;;;;;;;;;;;24.20;45.00;;;;;;492211;242;1199;-72
2022/11/01 11:54:21;;;;;;;;;;;24.10;45.20;;;;;;492273;242;1291;-72
2022/11/01 11:56:22;;;;;;;;;;;24.00;45.50;;;;;;492262;242;1315;-72
2022/11/01 11:58:23;;;;;;;;;;;24.00;45.50;;;;;;492195;242;1222;-72
2022/11/01 12:00:24;;;;;;;;;;;23.90;45.60;;;;;;492213;242;1361;-72
2022/11/01 12:02:26;;;;;;;;;;;23.90;45.80;;;;;;492220;242;1600;-72
2022/11/01 12:04:29;;;;;;;;;;;23.90;45.80;;;;;;492240;242;1222;-72